createdAt,value
2022-10-09T00:01:45.968Z,9.96
2022-10-09T00:04:19.319Z,9.88
2022-10-09T00:06:47.832Z,9.91
2022-10-09T00:09:17.369Z,9.85
2022-10-09T00:11:45.910Z,9.82
2022-10-09T00:14:16.002Z,9.79
2022-10-09T00:16:44.642Z,9.79
2022-10-09T00:19:12.791Z,9.81
2022-10-09T00:21:45.513Z,9.81
2022-10-09T00:24:13.607Z,9.82
2022-10-09T00:26:43.031Z,9.77
2022-10-09T00:29:19.577Z,9.79
2022-10-09T00:31:48.053Z,9.74
2022-10-09T00:34:16.898Z,9.71
2022-10-09T00:36:48.845Z,9.75
2022-10-09T00:39:16.840Z,9.71
2022-10-09T00:41:46.620Z,9.73
2022-10-09T00:44:54.343Z,9.70
2022-10-09T00:47:29.272Z,9.64
2022-10-09T00:50:02.709Z,9.62
2022-10-09T00:52:34.123Z,9.59
2022-10-09T00:55:04.490Z,9.58
2022-10-09T00:57:36.369Z,9.57
2022-10-09T01:00:07.856Z,9.58
2022-10-09T01:02:36.272Z,9.59
2022-10-09T01:05:05.388Z,9.58
2022-10-09T01:07:44.108Z,9.58
2022-10-09T01:10:26.798Z,9.59
2022-10-09T01:13:07.651Z,9.57
2022-10-09T01:15:43.901Z,9.57
2022-10-09T01:18:18.447Z,9.48
2022-10-09T01:20:54.082Z,9.43
2022-10-09T01:23:45.219Z,9.37
2022-10-09T01:26:33.133Z,9.34
2022-10-09T01:29:08.244Z,9.33
2022-10-09T01:31:41.311Z,9.26
2022-10-09T01:34:13.269Z,9.19
2022-10-09T01:36:46.248Z,9.15
2022-10-09T01:39:18.199Z,9.19
2022-10-09T01:41:51.615Z,9.16
2022-10-09T01:44:29.475Z,9.17
2022-10-09T01:46:58.572Z,9.17
2022-10-09T01:49:40.863Z,9.17
2022-10-09T01:52:19.341Z,9.15
2022-10-09T01:55:02.641Z,9.16
2022-10-09T01:57:38.508Z,9.10
2022-10-09T02:00:12.110Z,9.10
2022-10-09T02:02:43.227Z,9.07
2022-10-09T02:05:16.675Z,9.09
2022-10-09T02:07:46.754Z,9.07
2022-10-09T02:10:16.784Z,9.10
2022-10-09T02:12:50.379Z,9.10
2022-10-09T02:15:22.006Z,9.06
2022-10-09T02:17:54.107Z,8.95
2022-10-09T02:20:29.078Z,8.95
2022-10-09T02:23:00.231Z,8.99
2022-10-09T02:25:28.692Z,8.96
2022-10-09T02:27:57.435Z,8.98
2022-10-09T02:30:31.435Z,8.95
2022-10-09T02:32:59.610Z,8.96
2022-10-09T02:35:28.291Z,8.89
2022-10-09T02:37:56.611Z,8.92
2022-10-09T02:40:25.557Z,8.86
2022-10-09T02:42:54.159Z,8.90
2022-10-09T02:45:22.477Z,8.85
2022-10-09T02:47:52.929Z,8.88
2022-10-09T02:50:21.392Z,8.86
2022-10-09T02:52:49.789Z,8.86
2022-10-09T02:55:18.787Z,8.85
2022-10-09T02:57:47.193Z,9.00
2022-10-09T03:00:17.454Z,9.12
2022-10-09T03:02:46.670Z,9.09
2022-10-09T03:05:18.135Z,9.03
2022-10-09T03:07:51.746Z,9.06
2022-10-09T03:10:20.598Z,9.09
2022-10-09T03:12:52.183Z,9.00
2022-10-09T03:15:20.661Z,8.89
2022-10-09T03:17:49.054Z,8.89
2022-10-09T03:20:20.801Z,8.85
2022-10-09T03:22:49.360Z,8.89
2022-10-09T03:25:20.843Z,8.88
2022-10-09T03:27:49.415Z,8.82
2022-10-09T03:30:18.729Z,8.78
2022-10-09T03:32:47.878Z,8.82
2022-10-09T03:35:16.579Z,8.86
2022-10-09T03:37:46.089Z,8.93
2022-10-09T03:40:14.451Z,9.03
2022-10-09T03:42:44.584Z,9.15
2022-10-09T03:45:12.995Z,9.26
2022-10-09T03:47:45.764Z,9.38
2022-10-09T03:50:14.397Z,9.31
2022-10-09T03:52:42.480Z,9.24
2022-10-09T03:55:12.667Z,9.34
2022-10-09T03:57:41.354Z,9.50
2022-10-09T04:00:12.315Z,9.48
2022-10-09T04:02:43.769Z,9.59
2022-10-09T04:05:12.084Z,9.78
2022-10-09T04:07:40.644Z,9.98
2022-10-09T04:10:16.020Z,10.06
2022-10-09T04:12:44.379Z,10.15
2022-10-09T04:15:14.385Z,10.32
2022-10-09T04:17:44.075Z,10.49
2022-10-09T04:20:15.532Z,10.53
2022-10-09T04:22:43.764Z,10.67
2022-10-09T04:25:12.228Z,10.67
2022-10-09T04:27:42.793Z,10.70
2022-10-09T04:30:12.819Z,10.84
2022-10-09T04:32:43.155Z,10.90
2022-10-09T04:35:12.026Z,10.87
2022-10-09T04:37:41.117Z,10.88
2022-10-09T04:40:10.475Z,10.87
2022-10-09T04:42:38.929Z,10.87
2022-10-09T04:45:10.219Z,11.05
2022-10-09T04:47:38.965Z,11.12
2022-10-09T04:50:08.542Z,11.26
2022-10-09T04:52:38.114Z,11.22
2022-10-09T04:55:07.502Z,11.19
2022-10-09T04:57:38.815Z,11.25
2022-10-09T05:00:10.362Z,11.21
2022-10-09T05:02:38.634Z,11.26
2022-10-09T05:05:07.373Z,11.28
2022-10-09T05:07:38.844Z,11.29
2022-10-09T05:10:08.141Z,11.43
2022-10-09T05:12:36.663Z,11.47
2022-10-09T05:15:06.248Z,11.47
2022-10-09T05:17:36.137Z,11.44
2022-10-09T05:20:09.814Z,11.52
2022-10-09T05:22:38.263Z,11.46
2022-10-09T05:25:09.109Z,11.50
2022-10-09T05:27:37.294Z,11.53
2022-10-09T05:30:07.021Z,11.59
2022-10-09T05:32:37.056Z,11.66
2022-10-09T05:35:10.742Z,11.71
2022-10-09T05:37:38.916Z,11.74
2022-10-09T05:40:12.207Z,11.74
2022-10-09T05:42:40.753Z,11.67
2022-10-09T05:45:12.622Z,11.78
2022-10-09T05:47:42.167Z,11.87
2022-10-09T05:50:10.718Z,11.91
2022-10-09T05:52:42.022Z,11.91
2022-10-09T05:55:12.614Z,11.98
2022-10-09T05:57:43.614Z,11.98
2022-10-09T06:00:13.632Z,11.98
2022-10-09T06:02:43.597Z,12.01
2022-10-09T06:05:12.412Z,12.13
2022-10-09T06:07:40.925Z,12.14
2022-10-09T06:10:10.268Z,12.21
2022-10-09T06:12:41.208Z,12.25
2022-10-09T06:15:10.411Z,12.29
2022-10-09T06:17:44.929Z,12.29
2022-10-09T06:20:12.991Z,12.35
2022-10-09T06:22:41.298Z,12.39
2022-10-09T06:25:12.801Z,12.46
2022-10-09T06:27:41.441Z,12.52
2022-10-09T06:30:11.559Z,12.57
2022-10-09T06:32:43.307Z,12.59
2022-10-09T06:35:13.217Z,12.70
2022-10-09T06:37:41.491Z,12.77
2022-10-09T06:40:10.897Z,12.89
2022-10-09T06:42:40.123Z,13.04
2022-10-09T06:45:12.485Z,13.20
2022-10-09T06:47:40.739Z,13.34
2022-10-09T06:50:10.689Z,13.50
2022-10-09T06:52:42.991Z,13.63
2022-10-09T06:55:13.502Z,13.69
2022-10-09T06:57:42.913Z,13.83
2022-10-09T07:00:14.589Z,13.98
2022-10-09T07:02:44.176Z,14.07
2022-10-09T07:05:13.310Z,14.20
2022-10-09T07:07:51.633Z,14.28
2022-10-09T07:10:25.101Z,14.41
2022-10-09T07:12:54.289Z,14.54
2022-10-09T07:15:22.552Z,14.67
2022-10-09T07:17:52.174Z,14.72
2022-10-09T07:20:20.923Z,14.84
2022-10-09T07:22:51.946Z,14.88
2022-10-09T07:25:20.731Z,14.98
2022-10-09T07:27:50.065Z,15.12
2022-10-09T07:30:19.265Z,15.15
2022-10-09T07:32:48.707Z,15.27
2022-10-09T07:35:20.102Z,15.42
2022-10-09T07:37:48.767Z,15.50
2022-10-09T07:40:18.454Z,15.50
2022-10-09T07:42:46.652Z,15.57
2022-10-09T07:45:16.818Z,15.70
2022-10-09T07:47:45.990Z,15.82
2022-10-09T07:50:14.022Z,15.87
2022-10-09T07:52:42.332Z,15.94
2022-10-09T07:55:11.036Z,16.05
2022-10-09T07:57:43.879Z,16.09
2022-10-09T08:00:14.308Z,16.13
2022-10-09T08:02:45.772Z,16.15
2022-10-09T08:05:14.498Z,16.26
2022-10-09T08:07:42.694Z,16.33
2022-10-09T08:10:12.390Z,16.36
2022-10-09T08:12:44.144Z,16.45
2022-10-09T08:15:13.429Z,16.52
2022-10-09T08:17:42.148Z,16.60
2022-10-09T08:20:11.329Z,16.66
2022-10-09T08:22:39.715Z,16.74
2022-10-09T08:25:08.796Z,16.84
2022-10-09T08:27:40.090Z,16.88
2022-10-09T08:30:11.046Z,16.94
2022-10-09T08:32:41.350Z,17.00
2022-10-09T08:35:10.855Z,17.10
2022-10-09T08:37:39.997Z,17.18
2022-10-09T08:40:09.534Z,17.29
2022-10-09T08:42:41.324Z,17.40
2022-10-09T08:45:16.442Z,17.40
2022-10-09T08:47:48.154Z,17.40
2022-10-09T08:50:20.138Z,17.52
2022-10-09T08:52:54.046Z,17.62
2022-10-09T08:55:25.305Z,17.77
2022-10-09T08:57:58.040Z,17.83
2022-10-09T09:00:33.478Z,17.87
2022-10-09T09:03:31.393Z,17.89
2022-10-09T09:06:05.793Z,18.00
2022-10-09T09:08:45.287Z,18.14
2022-10-09T09:11:22.010Z,18.27
2022-10-09T09:13:59.265Z,18.38
2022-10-09T09:16:36.452Z,18.40
2022-10-09T09:19:26.383Z,18.38
2022-10-09T09:21:56.482Z,18.55
2022-10-09T09:24:35.183Z,18.68
2022-10-09T09:27:13.041Z,18.77
2022-10-09T09:29:46.823Z,18.85
2022-10-09T09:32:22.086Z,18.92
2022-10-09T09:34:51.401Z,19.04
2022-10-09T09:37:19.877Z,19.26
2022-10-09T09:42:37.935Z,19.31
2022-10-09T09:45:09.439Z,19.24
2022-10-09T09:47:48.203Z,19.16
2022-10-09T09:50:42.256Z,19.10
2022-10-09T09:53:09.183Z,18.92
2022-10-09T09:55:37.339Z,18.90
2022-10-09T09:58:09.245Z,18.92
2022-10-09T10:00:39.708Z,18.92
2022-10-09T10:03:16.378Z,18.83
2022-10-09T10:05:45.877Z,18.90
2022-10-09T10:08:27.728Z,18.98
2022-10-09T10:10:58.352Z,19.02
2022-10-09T10:13:33.891Z,19.02
2022-10-09T10:16:03.277Z,18.98
2022-10-09T10:18:39.915Z,19.02
2022-10-09T10:21:13.451Z,19.19
2022-10-09T10:23:45.890Z,19.16
2022-10-09T10:26:28.716Z,19.30
2022-10-09T10:29:01.735Z,19.57
2022-10-09T10:31:47.410Z,19.79
2022-10-09T10:34:22.461Z,19.78
2022-10-09T10:37:02.470Z,19.78
2022-10-09T10:39:38.428Z,19.62
2022-10-09T10:42:18.672Z,19.48
2022-10-09T10:44:52.500Z,19.41
2022-10-09T10:47:30.592Z,19.27
2022-10-09T10:50:00.725Z,19.30
2022-10-09T10:52:42.844Z,19.20
2022-10-09T10:55:27.678Z,19.06
2022-10-09T10:58:08.320Z,19.21
2022-10-09T11:00:40.729Z,19.34
2022-10-09T11:03:28.731Z,19.57
2022-10-09T11:06:05.739Z,19.64
2022-10-09T11:08:45.484Z,19.59
2022-10-09T11:11:23.502Z,19.55
2022-10-09T11:14:00.298Z,19.51
2022-10-09T11:16:43.616Z,19.40
2022-10-09T11:19:29.624Z,19.46
2022-10-09T11:22:08.664Z,19.74
2022-10-09T11:25:03.204Z,19.92
2022-10-09T11:27:39.585Z,20.23
2022-10-09T11:30:13.693Z,20.37
2022-10-09T11:32:54.244Z,20.57
2022-10-09T11:35:24.954Z,20.68
2022-10-09T11:38:02.309Z,20.88
2022-10-09T11:40:35.256Z,20.84
2022-10-09T11:43:08.798Z,20.74
2022-10-09T11:45:44.114Z,20.82
2022-10-09T11:48:19.994Z,20.61
2022-10-09T11:50:59.751Z,20.57
2022-10-09T11:53:34.626Z,20.73
2022-10-09T11:56:04.195Z,21.01
2022-10-09T11:58:34.135Z,21.01
2022-10-09T12:01:13.107Z,20.63
2022-10-09T12:03:42.399Z,20.65
2022-10-09T12:06:14.972Z,20.75
2022-10-09T12:08:56.378Z,20.32
2022-10-09T12:11:25.589Z,20.32
2022-10-09T12:13:55.859Z,20.54
2022-10-09T12:16:37.337Z,20.82
2022-10-09T12:19:14.812Z,20.95
2022-10-09T12:21:50.542Z,21.09
2022-10-09T12:24:23.800Z,21.26
2022-10-09T12:26:54.615Z,21.15
2022-10-09T12:29:28.374Z,20.96
2022-10-09T12:32:00.704Z,20.70
2022-10-09T12:34:32.381Z,20.57
2022-10-09T12:37:12.578Z,20.65
2022-10-09T12:39:46.386Z,20.77
2022-10-09T12:42:22.196Z,20.90
2022-10-09T12:44:52.929Z,21.15
2022-10-09T12:47:26.821Z,21.22
2022-10-09T12:50:04.653Z,21.09
2022-10-09T12:52:33.701Z,21.11
2022-10-09T12:55:05.230Z,21.02
2022-10-09T12:57:36.925Z,20.95
2022-10-09T13:00:07.122Z,21.08
2022-10-09T13:02:35.527Z,21.30
2022-10-09T13:05:04.117Z,21.21
2022-10-09T13:07:34.325Z,20.99
2022-10-09T13:10:16.844Z,21.02
2022-10-09T13:12:53.234Z,20.96
2022-10-09T13:15:34.053Z,20.91
2022-10-09T13:18:02.753Z,20.73
2022-10-09T13:20:33.742Z,20.67
2022-10-09T13:23:03.790Z,20.55
2022-10-09T13:25:37.331Z,20.47
2022-10-09T13:28:06.285Z,20.34
2022-10-09T13:30:34.699Z,20.29
2022-10-09T13:33:04.256Z,20.22
2022-10-09T13:35:36.281Z,20.09
2022-10-09T13:38:04.688Z,20.00
2022-10-09T13:40:35.920Z,20.00
2022-10-09T13:43:10.279Z,20.12
2022-10-09T13:45:38.690Z,20.02
2022-10-09T13:48:07.459Z,19.95
2022-10-09T13:50:36.184Z,19.90
2022-10-09T13:53:04.378Z,19.83
2022-10-09T13:55:34.697Z,19.74
2022-10-09T13:58:03.830Z,19.69
2022-10-09T14:00:33.657Z,19.55
2022-10-09T14:03:02.122Z,19.47
2022-10-09T14:05:30.772Z,19.35
2022-10-09T14:07:59.709Z,19.31
2022-10-09T14:10:29.848Z,19.27
2022-10-09T14:13:00.109Z,19.09
2022-10-09T14:15:28.760Z,18.98
2022-10-09T14:17:57.076Z,18.88
2022-10-09T14:20:29.727Z,18.77
2022-10-09T14:22:59.204Z,18.51
2022-10-09T14:25:27.480Z,18.45
2022-10-09T14:27:55.808Z,18.42
2022-10-09T14:30:31.480Z,18.35
2022-10-09T14:33:02.112Z,18.38
2022-10-09T14:35:31.961Z,18.34
2022-10-09T14:38:00.667Z,18.35
2022-10-09T14:40:30.586Z,18.21
2022-10-09T14:42:58.699Z,18.20
2022-10-09T14:45:30.423Z,18.23
2022-10-09T14:48:02.878Z,18.24
2022-10-09T14:50:32.579Z,18.20
2022-10-09T14:53:01.126Z,18.07
2022-10-09T14:55:29.969Z,18.07
2022-10-09T14:57:58.883Z,17.98
2022-10-09T15:00:27.649Z,17.96
2022-10-09T15:02:58.972Z,17.97
2022-10-09T15:05:29.543Z,17.73
2022-10-09T15:07:58.460Z,17.61
2022-10-09T15:10:26.817Z,17.61
2022-10-09T15:12:58.668Z,17.45
2022-10-09T15:15:31.793Z,17.38
2022-10-09T15:18:00.778Z,17.25
2022-10-09T15:20:30.704Z,17.14
2022-10-09T15:23:01.876Z,17.04
2022-10-09T15:25:32.180Z,16.92
2022-10-09T15:28:01.716Z,16.88
2022-10-09T15:30:30.864Z,16.81
2022-10-09T15:33:02.567Z,16.66
2022-10-09T15:35:33.541Z,16.66
2022-10-09T15:38:07.172Z,16.56
2022-10-09T15:40:45.035Z,16.45
2022-10-09T15:43:16.688Z,16.38
2022-10-09T15:45:45.615Z,16.34
2022-10-09T15:48:17.200Z,16.23
2022-10-09T15:50:51.342Z,16.06
2022-10-09T15:53:21.747Z,15.91
2022-10-09T15:55:52.503Z,15.81
2022-10-09T15:58:23.559Z,15.67
2022-10-09T16:00:52.632Z,15.54
2022-10-09T16:03:21.451Z,15.47
2022-10-09T16:05:52.872Z,15.40
2022-10-09T16:08:21.379Z,15.26
2022-10-09T16:10:52.029Z,15.06
2022-10-09T16:13:21.127Z,14.98
2022-10-09T16:15:54.497Z,14.88
2022-10-09T16:18:26.855Z,14.86
2022-10-09T16:20:57.284Z,14.67
2022-10-09T16:23:28.152Z,14.60
2022-10-09T16:26:05.314Z,14.49
2022-10-09T16:28:33.932Z,14.40
2022-10-09T16:31:03.640Z,14.31
2022-10-09T16:33:32.544Z,14.31
2022-10-09T16:36:11.966Z,14.21
2022-10-09T16:38:41.242Z,14.12
2022-10-09T16:41:12.376Z,14.00
2022-10-09T16:43:41.821Z,13.93
2022-10-09T16:46:12.604Z,13.85
2022-10-09T16:48:41.856Z,13.78
2022-10-09T16:51:12.611Z,13.68
2022-10-09T16:53:41.847Z,13.55
2022-10-09T16:56:12.481Z,13.41
2022-10-09T16:58:40.752Z,13.45
2022-10-09T17:01:10.717Z,13.34
2022-10-09T17:03:44.277Z,13.35
2022-10-09T17:06:16.253Z,13.30
2022-10-09T17:08:44.389Z,13.17
2022-10-09T17:11:17.263Z,13.15
2022-10-09T17:13:48.343Z,13.08
2022-10-09T17:16:18.798Z,13.04
2022-10-09T17:18:47.481Z,13.03
2022-10-09T17:21:19.845Z,12.99
2022-10-09T17:23:48.633Z,12.89
2022-10-09T17:26:19.962Z,12.82
2022-10-09T17:28:49.561Z,12.82
2022-10-09T17:31:20.589Z,12.72
2022-10-09T17:33:50.272Z,12.63
2022-10-09T17:36:21.785Z,12.56
2022-10-09T17:38:52.974Z,12.53
2022-10-09T17:41:24.601Z,12.49
2022-10-09T17:43:54.147Z,12.44
2022-10-09T17:46:24.943Z,12.44
2022-10-09T17:48:57.143Z,12.34
2022-10-09T17:51:28.635Z,12.28
2022-10-09T17:54:04.929Z,12.29
2022-10-09T17:56:37.140Z,12.24
2022-10-09T17:59:05.617Z,12.18
2022-10-09T18:01:35.344Z,12.15
2022-10-09T18:04:05.951Z,12.11
2022-10-09T18:06:37.453Z,12.05
2022-10-09T18:09:06.237Z,12.08
2022-10-09T18:11:36.756Z,12.08
2022-10-09T18:14:07.077Z,12.02
2022-10-09T18:16:37.926Z,11.98
2022-10-09T18:19:08.667Z,11.97
2022-10-09T18:21:40.230Z,11.97
2022-10-09T18:24:08.871Z,11.99
2022-10-09T18:26:37.672Z,12.05
2022-10-09T18:29:06.672Z,11.94
2022-10-09T18:31:35.305Z,11.90
2022-10-09T18:34:04.259Z,11.88
2022-10-09T18:36:34.360Z,11.88
2022-10-09T18:39:08.173Z,11.86
2022-10-09T18:41:38.089Z,11.83
2022-10-09T18:44:07.669Z,11.77
2022-10-09T18:46:40.488Z,11.87
2022-10-09T18:49:10.900Z,11.81
2022-10-09T18:51:43.883Z,11.80
2022-10-09T18:54:17.987Z,11.78
2022-10-09T18:56:47.491Z,11.73
2022-10-09T18:59:20.634Z,11.76
2022-10-09T19:01:49.046Z,11.73
2022-10-09T19:04:17.573Z,11.78
2022-10-09T19:06:46.153Z,11.76
2022-10-09T19:09:17.362Z,11.74
2022-10-09T19:11:45.655Z,11.71
2022-10-09T19:14:15.909Z,11.73
2022-10-09T19:16:46.803Z,11.76
2022-10-09T19:19:19.518Z,11.76
2022-10-09T19:21:49.009Z,11.71
2022-10-09T19:24:18.388Z,11.67
2022-10-09T19:26:47.028Z,11.71
2022-10-09T19:29:16.426Z,11.66
2022-10-09T19:31:45.133Z,11.60
2022-10-09T19:34:13.548Z,11.55
2022-10-09T19:36:43.323Z,11.50
2022-10-09T19:39:11.508Z,11.52
2022-10-09T19:41:47.965Z,11.43
2022-10-09T19:44:19.119Z,11.39
2022-10-09T19:46:52.911Z,11.35
2022-10-09T19:49:21.145Z,11.28
2022-10-09T19:51:50.864Z,11.21
2022-10-09T19:54:21.360Z,11.22
2022-10-09T19:56:50.941Z,11.15
2022-10-09T19:59:21.616Z,11.21
2022-10-09T20:01:55.163Z,11.25
2022-10-09T20:04:26.889Z,11.25
2022-10-09T20:06:55.453Z,11.26
2022-10-09T20:09:23.894Z,11.26
2022-10-09T20:12:00.439Z,11.26
2022-10-09T20:14:30.206Z,11.30
2022-10-09T20:16:58.768Z,11.40
2022-10-09T20:19:31.469Z,11.46
2022-10-09T20:22:00.442Z,11.50
2022-10-09T20:24:28.806Z,11.52
2022-10-09T20:27:01.446Z,11.49
2022-10-09T20:29:34.250Z,11.40
2022-10-09T20:32:03.443Z,11.40
2022-10-09T20:34:31.933Z,11.42
2022-10-09T20:37:01.673Z,11.44
2022-10-09T20:39:31.218Z,11.43
2022-10-09T20:42:01.452Z,11.42
2022-10-09T20:44:29.900Z,11.36
2022-10-09T20:46:58.440Z,11.29
2022-10-09T20:49:29.473Z,11.25
2022-10-09T20:51:58.019Z,11.21
2022-10-09T20:54:31.004Z,11.19
2022-10-09T20:57:00.963Z,11.15
2022-10-09T20:59:29.400Z,11.14
2022-10-09T21:02:00.597Z,11.07
2022-10-09T21:04:28.887Z,11.07
2022-10-09T21:06:58.192Z,11.04
2022-10-09T21:09:32.279Z,10.95
2022-10-09T21:12:03.009Z,10.95
2022-10-09T21:14:33.859Z,10.91
2022-10-09T21:17:03.640Z,10.95
2022-10-09T21:19:32.226Z,10.92
2022-10-09T21:22:00.933Z,10.94
2022-10-09T21:24:29.261Z,11.02
2022-10-09T21:26:57.455Z,11.05
2022-10-09T21:29:30.143Z,10.98
2022-10-09T21:31:59.034Z,10.98
2022-10-09T21:34:29.560Z,10.95
2022-10-09T21:39:46.870Z,10.94
2022-10-09T21:42:15.570Z,10.95
2022-10-09T21:44:48.720Z,10.97
2022-10-09T21:47:20.010Z,10.95
2022-10-09T21:49:48.894Z,10.97
2022-10-09T21:52:17.209Z,10.95
2022-10-09T21:54:46.621Z,11.01
2022-10-09T21:57:15.192Z,11.00
2022-10-09T21:59:49.067Z,11.05
2022-10-09T22:02:17.241Z,10.98
2022-10-09T22:04:46.343Z,11.00
2022-10-09T22:07:16.422Z,11.00
2022-10-09T22:09:45.162Z,10.95
2022-10-09T22:12:14.723Z,10.94
2022-10-09T22:14:43.342Z,10.88
2022-10-09T22:17:12.890Z,10.88
2022-10-09T22:19:50.033Z,10.82
2022-10-09T22:22:23.845Z,10.82
2022-10-09T22:24:55.028Z,10.81
2022-10-09T22:27:24.192Z,10.78
2022-10-09T22:29:52.831Z,10.75
2022-10-09T22:32:27.054Z,10.71
2022-10-09T22:34:55.529Z,10.74
2022-10-09T22:37:24.441Z,10.80
2022-10-09T22:39:53.242Z,10.75
2022-10-09T22:42:26.587Z,10.71
2022-10-09T22:44:55.245Z,10.71
2022-10-09T22:47:24.962Z,10.65
2022-10-09T22:49:53.547Z,10.70
2022-10-09T22:52:23.417Z,10.73
2022-10-09T22:54:52.604Z,10.71
2022-10-09T22:57:21.068Z,10.67
2022-10-09T22:59:50.632Z,10.59
2022-10-09T23:02:19.323Z,10.59
2022-10-09T23:04:49.945Z,10.59
2022-10-09T23:07:18.480Z,10.57
2022-10-09T23:09:48.066Z,10.53
2022-10-09T23:12:16.332Z,10.50
2022-10-09T23:14:44.701Z,10.49
2022-10-09T23:17:14.844Z,10.49
2022-10-09T23:19:43.289Z,10.46
2022-10-09T23:22:13.260Z,10.46
2022-10-09T23:24:45.746Z,10.49
2022-10-09T23:27:15.678Z,10.54
2022-10-09T23:29:43.940Z,10.52
2022-10-09T23:32:12.644Z,10.50
2022-10-09T23:34:42.129Z,10.54
2022-10-09T23:37:13.685Z,10.57
2022-10-09T23:39:43.297Z,10.57
2022-10-09T23:42:11.831Z,10.53
2022-10-09T23:44:40.537Z,10.50
2022-10-09T23:47:11.929Z,10.40
2022-10-09T23:49:45.209Z,10.39
2022-10-09T23:52:15.227Z,10.37
2022-10-09T23:54:43.969Z,10.33
2022-10-09T23:57:12.220Z,10.28
2022-10-09T23:59:44.922Z,10.23
